sensor_id;sensor_type;location;lat;lon;timestamp;temperature;humidity
64561;DHT22;50960;46.838;16.838;2023-12-29T00:02:08;1.10;99.90
64561;DHT22;50960;46.838;16.838;2023-12-29T00:04:34;1.20;99.90
64561;DHT22;50960;46.838;16.838;2023-12-29T00:07:03;1.20;99.90
64561;DHT22;50960;46.838;16.838;2023-12-29T00:09:29;1.20;99.90
64561;DHT22;50960;46.838;16.838;2023-12-29T00:11:55;1.20;99.90
64561;DHT22;50960;46.838;16.838;2023-12-29T00:14:22;1.10;99.90
64561;DHT22;50960;46.838;16.838;2023-12-29T00:16:49;1.10;99.90
64561;DHT22;50960;46.838;16.838;2023-12-29T00:19:15;1.20;99.90
64561;DHT22;50960;46.838;16.838;2023-12-29T00:21:41;1.20;99.90
64561;DHT22;50960;46.838;16.838;2023-12-29T00:24:08;1.10;99.90
64561;DHT22;50960;46.838;16.838;2023-12-29T00:26:34;0.90;99.90
64561;DHT22;50960;46.838;16.838;2023-12-29T00:29:00;0.90;99.90
64561;DHT22;50960;46.838;16.838;2023-12-29T00:31:26;0.80;99.90
64561;DHT22;50960;46.838;16.838;2023-12-29T00:33:53;0.80;99.90
64561;DHT22;50960;46.838;16.838;2023-12-29T00:36:19;0.80;99.90
64561;DHT22;50960;46.838;16.838;2023-12-29T00:38:46;0.90;99.90
64561;DHT22;50960;46.838;16.838;2023-12-29T00:41:13;0.90;99.90
64561;DHT22;50960;46.838;16.838;2023-12-29T00:43:39;0.90;99.90
64561;DHT22;50960;46.838;16.838;2023-12-29T00:46:05;0.90;99.90
64561;DHT22;50960;46.838;16.838;2023-12-29T00:48:32;0.90;99.90
64561;DHT22;50960;46.838;16.838;2023-12-29T00:51:00;0.90;99.90
64561;DHT22;50960;46.838;16.838;2023-12-29T00:53:26;0.90;99.90
64561;DHT22;50960;46.838;16.838;2023-12-29T00:55:53;0.90;99.90
64561;DHT22;50960;46.838;16.838;2023-12-29T00:58:19;1.00;99.90
64561;DHT22;50960;46.838;16.838;2023-12-29T01:00:45;0.90;99.90
64561;DHT22;50960;46.838;16.838;2023-12-29T01:03:13;0.80;99.90
64561;DHT22;50960;46.838;16.838;2023-12-29T01:05:39;0.90;99.90
64561;DHT22;50960;46.838;16.838;2023-12-29T01:08:06;0.90;99.90
64561;DHT22;50960;46.838;16.838;2023-12-29T01:10:32;0.80;99.90
64561;DHT22;50960;46.838;16.838;2023-12-29T01:12:58;0.80;99.90
64561;DHT22;50960;46.838;16.838;2023-12-29T01:15:24;0.80;99.90
64561;DHT22;50960;46.838;16.838;2023-12-29T01:17:50;0.90;99.90
64561;DHT22;50960;46.838;16.838;2023-12-29T01:20:16;0.80;99.90
64561;DHT22;50960;46.838;16.838;2023-12-29T01:22:43;0.70;99.90
64561;DHT22;50960;46.838;16.838;2023-12-29T01:25:09;0.80;99.90
64561;DHT22;50960;46.838;16.838;2023-12-29T01:27:36;0.90;99.90
64561;DHT22;50960;46.838;16.838;2023-12-29T01:30:02;0.80;99.90
64561;DHT22;50960;46.838;16.838;2023-12-29T01:32:29;0.70;99.90
64561;DHT22;50960;46.838;16.838;2023-12-29T01:34:55;0.70;99.90
64561;DHT22;50960;46.838;16.838;2023-12-29T01:37:22;0.70;99.90
64561;DHT22;50960;46.838;16.838;2023-12-29T01:39:48;0.70;99.90
64561;DHT22;50960;46.838;16.838;2023-12-29T01:42:14;0.60;99.90
64561;DHT22;50960;46.838;16.838;2023-12-29T01:44:40;0.70;99.90
64561;DHT22;50960;46.838;16.838;2023-12-29T01:47:15;0.80;99.90
64561;DHT22;50960;46.838;16.838;2023-12-29T01:49:45;0.80;99.90
64561;DHT22;50960;46.838;16.838;2023-12-29T01:52:12;0.70;99.90
64561;DHT22;50960;46.838;16.838;2023-12-29T01:54:39;0.60;99.90
64561;DHT22;50960;46.838;16.838;2023-12-29T01:57:08;0.70;99.90
64561;DHT22;50960;46.838;16.838;2023-12-29T01:59:35;0.70;99.90
64561;DHT22;50960;46.838;16.838;2023-12-29T02:02:02;0.60;99.90
64561;DHT22;50960;46.838;16.838;2023-12-29T02:04:28;0.70;99.90
64561;DHT22;50960;46.838;16.838;2023-12-29T02:06:58;0.70;99.90
64561;DHT22;50960;46.838;16.838;2023-12-29T02:09:24;0.70;99.90
64561;DHT22;50960;46.838;16.838;2023-12-29T02:11:51;0.70;99.90
64561;DHT22;50960;46.838;16.838;2023-12-29T02:14:18;0.70;99.90
64561;DHT22;50960;46.838;16.838;2023-12-29T02:19:43;0.70;99.90
64561;DHT22;50960;46.838;16.838;2023-12-29T02:22:11;0.70;99.90
64561;DHT22;50960;46.838;16.838;2023-12-29T02:24:38;0.70;99.90
64561;DHT22;50960;46.838;16.838;2023-12-29T02:27:12;0.80;99.90
64561;DHT22;50960;46.838;16.838;2023-12-29T02:29:47;0.80;99.90
64561;DHT22;50960;46.838;16.838;2023-12-29T02:32:18;0.90;99.90
64561;DHT22;50960;46.838;16.838;2023-12-29T02:34:47;0.90;99.90
64561;DHT22;50960;46.838;16.838;2023-12-29T02:37:16;0.90;99.90
64561;DHT22;50960;46.838;16.838;2023-12-29T02:39:42;0.90;99.90
64561;DHT22;50960;46.838;16.838;2023-12-29T02:42:08;1.00;99.90
64561;DHT22;50960;46.838;16.838;2023-12-29T02:44:35;1.00;99.90
64561;DHT22;50960;46.838;16.838;2023-12-29T02:47:02;1.00;99.90
64561;DHT22;50960;46.838;16.838;2023-12-29T02:49:29;1.10;99.90
64561;DHT22;50960;46.838;16.838;2023-12-29T02:51:56;1.10;99.90
64561;DHT22;50960;46.838;16.838;2023-12-29T02:54:22;1.10;99.90
64561;DHT22;50960;46.838;16.838;2023-12-29T02:56:48;1.10;99.90
64561;DHT22;50960;46.838;16.838;2023-12-29T02:59:15;1.20;99.90
64561;DHT22;50960;46.838;16.838;2023-12-29T03:01:41;1.30;99.90
64561;DHT22;50960;46.838;16.838;2023-12-29T03:04:07;1.30;99.90
64561;DHT22;50960;46.838;16.838;2023-12-29T03:06:33;1.30;99.90
64561;DHT22;50960;46.838;16.838;2023-12-29T03:08:59;1.30;99.90
64561;DHT22;50960;46.838;16.838;2023-12-29T03:11:26;1.40;99.90
64561;DHT22;50960;46.838;16.838;2023-12-29T03:13:55;1.30;99.90
64561;DHT22;50960;46.838;16.838;2023-12-29T03:16:21;1.30;99.90
64561;DHT22;50960;46.838;16.838;2023-12-29T03:18:47;1.20;99.90
64561;DHT22;50960;46.838;16.838;2023-12-29T03:21:13;1.20;99.90
64561;DHT22;50960;46.838;16.838;2023-12-29T03:23:39;1.10;99.90
64561;DHT22;50960;46.838;16.838;2023-12-29T03:26:06;1.10;99.90
64561;DHT22;50960;46.838;16.838;2023-12-29T03:28:32;1.10;99.90
64561;DHT22;50960;46.838;16.838;2023-12-29T03:30:59;1.20;99.90
64561;DHT22;50960;46.838;16.838;2023-12-29T03:33:25;1.20;99.90
64561;DHT22;50960;46.838;16.838;2023-12-29T03:35:51;1.30;99.90
64561;DHT22;50960;46.838;16.838;2023-12-29T03:38:17;1.30;99.90
64561;DHT22;50960;46.838;16.838;2023-12-29T03:40:43;1.30;99.90
64561;DHT22;50960;46.838;16.838;2023-12-29T03:43:10;1.30;99.90
64561;DHT22;50960;46.838;16.838;2023-12-29T03:45:36;1.20;99.90
64561;DHT22;50960;46.838;16.838;2023-12-29T03:48:02;1.20;99.90
64561;DHT22;50960;46.838;16.838;2023-12-29T03:50:28;1.30;99.90
64561;DHT22;50960;46.838;16.838;2023-12-29T03:52:56;1.30;99.90
64561;DHT22;50960;46.838;16.838;2023-12-29T03:55:22;1.30;99.90
64561;DHT22;50960;46.838;16.838;2023-12-29T03:57:48;1.20;99.90
64561;DHT22;50960;46.838;16.838;2023-12-29T04:00:14;1.30;99.90
64561;DHT22;50960;46.838;16.838;2023-12-29T04:02:41;1.30;99.90
64561;DHT22;50960;46.838;16.838;2023-12-29T04:05:09;1.20;99.90
64561;DHT22;50960;46.838;16.838;2023-12-29T04:07:40;1.10;99.90
64561;DHT22;50960;46.838;16.838;2023-12-29T04:10:07;1.00;99.90
64561;DHT22;50960;46.838;16.838;2023-12-29T04:12:34;1.00;99.90
64561;DHT22;50960;46.838;16.838;2023-12-29T04:15:02;1.00;99.90
64561;DHT22;50960;46.838;16.838;2023-12-29T04:17:29;1.00;99.90
64561;DHT22;50960;46.838;16.838;2023-12-29T04:19:55;0.90;99.90
64561;DHT22;50960;46.838;16.838;2023-12-29T04:22:22;0.90;99.90
64561;DHT22;50960;46.838;16.838;2023-12-29T04:24:50;0.90;99.90
64561;DHT22;50960;46.838;16.838;2023-12-29T04:27:17;0.80;99.90
64561;DHT22;50960;46.838;16.838;2023-12-29T04:29:44;0.80;99.90
64561;DHT22;50960;46.838;16.838;2023-12-29T04:32:12;0.70;99.90
64561;DHT22;50960;46.838;16.838;2023-12-29T04:34:38;0.60;99.90
64561;DHT22;50960;46.838;16.838;2023-12-29T04:37:04;0.60;99.90
64561;DHT22;50960;46.838;16.838;2023-12-29T04:39:30;0.60;99.90
64561;DHT22;50960;46.838;16.838;2023-12-29T04:41:56;0.60;99.90
64561;DHT22;50960;46.838;16.838;2023-12-29T04:44:22;0.60;99.90
64561;DHT22;50960;46.838;16.838;2023-12-29T04:46:49;0.50;99.90
64561;DHT22;50960;46.838;16.838;2023-12-29T04:49:15;0.60;99.90
64561;DHT22;50960;46.838;16.838;2023-12-29T04:51:41;0.50;99.90
64561;DHT22;50960;46.838;16.838;2023-12-29T04:54:08;0.60;99.90
64561;DHT22;50960;46.838;16.838;2023-12-29T04:56:34;0.60;99.90
64561;DHT22;50960;46.838;16.838;2023-12-29T04:59:00;0.50;99.90
64561;DHT22;50960;46.838;16.838;2023-12-29T05:01:26;0.50;99.90
64561;DHT22;50960;46.838;16.838;2023-12-29T05:03:54;0.50;99.90
64561;DHT22;50960;46.838;16.838;2023-12-29T05:06:20;0.50;99.90
64561;DHT22;50960;46.838;16.838;2023-12-29T05:08:46;0.50;99.90
64561;DHT22;50960;46.838;16.838;2023-12-29T05:11:12;0.50;99.90
64561;DHT22;50960;46.838;16.838;2023-12-29T05:13:39;0.50;99.90
64561;DHT22;50960;46.838;16.838;2023-12-29T05:16:05;0.50;99.90
64561;DHT22;50960;46.838;16.838;2023-12-29T05:18:32;0.40;99.90
64561;DHT22;50960;46.838;16.838;2023-12-29T05:20:58;0.40;99.90
64561;DHT22;50960;46.838;16.838;2023-12-29T05:23:24;0.40;99.90
64561;DHT22;50960;46.838;16.838;2023-12-29T05:25:51;0.30;99.90
64561;DHT22;50960;46.838;16.838;2023-12-29T05:28:17;0.40;99.90
64561;DHT22;50960;46.838;16.838;2023-12-29T05:30:43;0.30;99.90
64561;DHT22;50960;46.838;16.838;2023-12-29T05:33:09;0.30;99.90
64561;DHT22;50960;46.838;16.838;2023-12-29T05:35:36;0.30;99.90
64561;DHT22;50960;46.838;16.838;2023-12-29T05:38:04;0.30;99.90
64561;DHT22;50960;46.838;16.838;2023-12-29T05:40:31;0.30;99.90
64561;DHT22;50960;46.838;16.838;2023-12-29T05:42:58;0.30;99.90
64561;DHT22;50960;46.838;16.838;2023-12-29T05:45:24;0.20;99.90
64561;DHT22;50960;46.838;16.838;2023-12-29T05:47:56;0.20;99.90
64561;DHT22;50960;46.838;16.838;2023-12-29T05:50:22;0.10;99.90
64561;DHT22;50960;46.838;16.838;2023-12-29T05:52:50;0.10;99.90
64561;DHT22;50960;46.838;16.838;2023-12-29T05:55:18;0.20;99.90
64561;DHT22;50960;46.838;16.838;2023-12-29T05:57:45;0.10;99.90
64561;DHT22;50960;46.838;16.838;2023-12-29T06:00:11;0.10;99.90
64561;DHT22;50960;46.838;16.838;2023-12-29T06:02:43;0.10;99.90
64561;DHT22;50960;46.838;16.838;2023-12-29T06:05:12;0.20;99.90
64561;DHT22;50960;46.838;16.838;2023-12-29T06:07:39;0.10;99.90
64561;DHT22;50960;46.838;16.838;2023-12-29T06:10:06;0.10;99.90
64561;DHT22;50960;46.838;16.838;2023-12-29T06:12:32;0.10;99.90
64561;DHT22;50960;46.838;16.838;2023-12-29T06:14:58;0.10;99.90
64561;DHT22;50960;46.838;16.838;2023-12-29T06:17:24;0.10;99.90
64561;DHT22;50960;46.838;16.838;2023-12-29T06:19:50;0.10;99.90
64561;DHT22;50960;46.838;16.838;2023-12-29T06:22:17;0.10;99.90
64561;DHT22;50960;46.838;16.838;2023-12-29T06:24:43;0.10;99.90
64561;DHT22;50960;46.838;16.838;2023-12-29T06:27:09;0.20;99.90
64561;DHT22;50960;46.838;16.838;2023-12-29T06:29:36;0.20;99.90
64561;DHT22;50960;46.838;16.838;2023-12-29T06:32:03;0.10;99.90
64561;DHT22;50960;46.838;16.838;2023-12-29T06:34:30;0.20;99.90
64561;DHT22;50960;46.838;16.838;2023-12-29T06:36:57;0.00;99.90
64561;DHT22;50960;46.838;16.838;2023-12-29T06:39:23;0.40;99.90
64561;DHT22;50960;46.838;16.838;2023-12-29T06:41:50;0.50;99.90
64561;DHT22;50960;46.838;16.838;2023-12-29T06:44:16;0.40;99.90
64561;DHT22;50960;46.838;16.838;2023-12-29T06:46:42;0.50;99.90
64561;DHT22;50960;46.838;16.838;2023-12-29T06:49:08;0.40;99.90
64561;DHT22;50960;46.838;16.838;2023-12-29T06:51:35;0.50;99.90
64561;DHT22;50960;46.838;16.838;2023-12-29T06:54:07;0.50;99.90
64561;DHT22;50960;46.838;16.838;2023-12-29T06:56:33;0.60;99.90
64561;DHT22;50960;46.838;16.838;2023-12-29T06:59:00;0.60;99.90
64561;DHT22;50960;46.838;16.838;2023-12-29T07:01:26;0.50;99.90
64561;DHT22;50960;46.838;16.838;2023-12-29T07:03:52;0.50;99.90
64561;DHT22;50960;46.838;16.838;2023-12-29T07:06:18;0.60;99.90
64561;DHT22;50960;46.838;16.838;2023-12-29T07:08:50;0.60;99.90
64561;DHT22;50960;46.838;16.838;2023-12-29T07:11:17;0.70;99.90
64561;DHT22;50960;46.838;16.838;2023-12-29T07:13:44;0.60;99.90
64561;DHT22;50960;46.838;16.838;2023-12-29T07:16:10;0.70;99.90
64561;DHT22;50960;46.838;16.838;2023-12-29T07:18:37;0.80;99.90
64561;DHT22;50960;46.838;16.838;2023-12-29T07:21:03;0.80;99.90
64561;DHT22;50960;46.838;16.838;2023-12-29T07:23:30;0.80;99.90
64561;DHT22;50960;46.838;16.838;2023-12-29T07:25:56;0.90;99.90
64561;DHT22;50960;46.838;16.838;2023-12-29T07:28:23;0.90;99.90
64561;DHT22;50960;46.838;16.838;2023-12-29T07:30:49;1.10;99.90
64561;DHT22;50960;46.838;16.838;2023-12-29T07:33:15;1.10;99.90
64561;DHT22;50960;46.838;16.838;2023-12-29T07:35:42;1.20;99.90
64561;DHT22;50960;46.838;16.838;2023-12-29T07:38:14;1.30;99.90
64561;DHT22;50960;46.838;16.838;2023-12-29T07:40:40;1.20;99.90
64561;DHT22;50960;46.838;16.838;2023-12-29T07:43:08;1.30;99.90
64561;DHT22;50960;46.838;16.838;2023-12-29T07:45:34;1.20;99.90
64561;DHT22;50960;46.838;16.838;2023-12-29T07:48:02;1.30;99.90
64561;DHT22;50960;46.838;16.838;2023-12-29T07:50:29;1.40;99.90
64561;DHT22;50960;46.838;16.838;2023-12-29T07:52:55;1.60;99.90
64561;DHT22;50960;46.838;16.838;2023-12-29T07:55:22;1.70;99.90
64561;DHT22;50960;46.838;16.838;2023-12-29T07:57:48;1.80;99.90
64561;DHT22;50960;46.838;16.838;2023-12-29T08:00:15;1.90;99.90
64561;DHT22;50960;46.838;16.838;2023-12-29T08:02:41;2.00;99.90
64561;DHT22;50960;46.838;16.838;2023-12-29T08:05:10;2.00;99.90
64561;DHT22;50960;46.838;16.838;2023-12-29T08:07:37;2.10;99.90
64561;DHT22;50960;46.838;16.838;2023-12-29T08:10:05;2.20;99.90
64561;DHT22;50960;46.838;16.838;2023-12-29T08:12:33;2.30;99.90
64561;DHT22;50960;46.838;16.838;2023-12-29T08:15:01;2.50;99.90
64561;DHT22;50960;46.838;16.838;2023-12-29T08:17:29;2.60;99.90
64561;DHT22;50960;46.838;16.838;2023-12-29T08:19:57;2.60;99.90
64561;DHT22;50960;46.838;16.838;2023-12-29T08:22:29;1.80;99.90
64561;DHT22;50960;46.838;16.838;2023-12-29T08:24:56;2.70;99.90
64561;DHT22;50960;46.838;16.838;2023-12-29T08:27:25;2.70;99.90
64561;DHT22;50960;46.838;16.838;2023-12-29T08:29:58;2.80;99.90
64561;DHT22;50960;46.838;16.838;2023-12-29T08:32:24;2.80;99.90
64561;DHT22;50960;46.838;16.838;2023-12-29T08:34:50;2.80;99.90
64561;DHT22;50960;46.838;16.838;2023-12-29T08:37:17;2.80;99.90
64561;DHT22;50960;46.838;16.838;2023-12-29T08:39:46;3.00;99.90
64561;DHT22;50960;46.838;16.838;2023-12-29T08:42:14;3.10;99.90
64561;DHT22;50960;46.838;16.838;2023-12-29T08:44:40;3.20;99.90
64561;DHT22;50960;46.838;16.838;2023-12-29T08:49:37;3.20;99.90
64561;DHT22;50960;46.838;16.838;2023-12-29T08:52:04;3.30;99.90
64561;DHT22;50960;46.838;16.838;2023-12-29T08:56:59;3.40;99.90
64561;DHT22;50960;46.838;16.838;2023-12-29T08:59:26;3.50;99.90
64561;DHT22;50960;46.838;16.838;2023-12-29T09:01:53;3.60;99.90
64561;DHT22;50960;46.838;16.838;2023-12-29T09:04:19;3.60;99.90
64561;DHT22;50960;46.838;16.838;2023-12-29T09:06:47;3.60;99.90
64561;DHT22;50960;46.838;16.838;2023-12-29T09:09:14;3.70;99.90
64561;DHT22;50960;46.838;16.838;2023-12-29T09:11:42;3.70;99.90
64561;DHT22;50960;46.838;16.838;2023-12-29T09:14:08;3.80;99.90
64561;DHT22;50960;46.838;16.838;2023-12-29T09:16:37;3.90;99.90
64561;DHT22;50960;46.838;16.838;2023-12-29T09:19:06;4.10;99.90
64561;DHT22;50960;46.838;16.838;2023-12-29T09:21:33;4.10;99.90
64561;DHT22;50960;46.838;16.838;2023-12-29T09:24:00;4.20;99.90
64561;DHT22;50960;46.838;16.838;2023-12-29T09:26:27;4.30;99.90
64561;DHT22;50960;46.838;16.838;2023-12-29T09:28:53;4.30;99.90
64561;DHT22;50960;46.838;16.838;2023-12-29T09:31:19;4.40;99.90
64561;DHT22;50960;46.838;16.838;2023-12-29T09:33:45;4.50;99.90
64561;DHT22;50960;46.838;16.838;2023-12-29T09:36:12;4.60;99.90
64561;DHT22;50960;46.838;16.838;2023-12-29T09:38:38;4.70;99.90
64561;DHT22;50960;46.838;16.838;2023-12-29T09:41:09;4.80;99.90
64561;DHT22;50960;46.838;16.838;2023-12-29T09:43:38;4.90;99.90
64561;DHT22;50960;46.838;16.838;2023-12-29T09:46:08;5.00;99.90
64561;DHT22;50960;46.838;16.838;2023-12-29T09:48:37;5.10;99.90
64561;DHT22;50960;46.838;16.838;2023-12-29T09:56:07;5.70;99.90
64561;DHT22;50960;46.838;16.838;2023-12-29T09:58:34;5.90;99.90
64561;DHT22;50960;46.838;16.838;2023-12-29T10:01:02;6.00;99.90
64561;DHT22;50960;46.838;16.838;2023-12-29T10:03:29;6.20;99.90
64561;DHT22;50960;46.838;16.838;2023-12-29T10:05:56;6.20;99.90
64561;DHT22;50960;46.838;16.838;2023-12-29T10:08:27;6.40;99.90
64561;DHT22;50960;46.838;16.838;2023-12-29T10:10:58;6.70;99.90
64561;DHT22;50960;46.838;16.838;2023-12-29T10:13:28;7.00;99.90
64561;DHT22;50960;46.838;16.838;2023-12-29T10:21:11;7.70;99.90
64561;DHT22;50960;46.838;16.838;2023-12-29T10:23:48;7.90;99.90
64561;DHT22;50960;46.838;16.838;2023-12-29T15:38:09;9.00;99.90
64561;DHT22;50960;46.838;16.838;2023-12-29T15:40:35;8.90;99.90
64561;DHT22;50960;46.838;16.838;2023-12-29T15:43:02;8.80;99.90
64561;DHT22;50960;46.838;16.838;2023-12-29T15:45:31;8.70;99.90
64561;DHT22;50960;46.838;16.838;2023-12-29T15:47:58;8.60;99.90
64561;DHT22;50960;46.838;16.838;2023-12-29T15:50:25;8.50;99.90
64561;DHT22;50960;46.838;16.838;2023-12-29T15:52:51;8.40;99.90
64561;DHT22;50960;46.838;16.838;2023-12-29T15:55:18;8.30;99.90
64561;DHT22;50960;46.838;16.838;2023-12-29T15:57:44;8.20;99.90
64561;DHT22;50960;46.838;16.838;2023-12-29T16:00:11;8.00;99.90
64561;DHT22;50960;46.838;16.838;2023-12-29T16:02:46;8.00;99.90
64561;DHT22;50960;46.838;16.838;2023-12-29T16:05:15;8.00;99.90
64561;DHT22;50960;46.838;16.838;2023-12-29T16:07:42;7.90;99.90
64561;DHT22;50960;46.838;16.838;2023-12-29T16:10:09;7.80;99.90
64561;DHT22;50960;46.838;16.838;2023-12-29T16:12:36;7.70;99.90
64561;DHT22;50960;46.838;16.838;2023-12-29T16:15:03;7.60;99.90
64561;DHT22;50960;46.838;16.838;2023-12-29T16:17:32;7.50;99.90
64561;DHT22;50960;46.838;16.838;2023-12-29T16:19:59;7.40;99.90
64561;DHT22;50960;46.838;16.838;2023-12-29T16:22:25;7.40;99.90
64561;DHT22;50960;46.838;16.838;2023-12-29T16:24:53;7.30;99.90
64561;DHT22;50960;46.838;16.838;2023-12-29T16:27:20;7.20;99.90
64561;DHT22;50960;46.838;16.838;2023-12-29T16:29:46;7.10;99.90
64561;DHT22;50960;46.838;16.838;2023-12-29T16:32:20;7.10;99.90
64561;DHT22;50960;46.838;16.838;2023-12-29T16:34:47;7.20;99.90
64561;DHT22;50960;46.838;16.838;2023-12-29T16:37:15;7.00;99.90
64561;DHT22;50960;46.838;16.838;2023-12-29T16:39:41;7.00;99.90
64561;DHT22;50960;46.838;16.838;2023-12-29T16:42:10;6.90;99.90
64561;DHT22;50960;46.838;16.838;2023-12-29T16:44:37;6.80;99.90
64561;DHT22;50960;46.838;16.838;2023-12-29T16:47:05;6.70;99.90
64561;DHT22;50960;46.838;16.838;2023-12-29T16:49:33;6.70;99.90
64561;DHT22;50960;46.838;16.838;2023-12-29T16:52:01;6.60;99.90
64561;DHT22;50960;46.838;16.838;2023-12-29T16:54:28;6.60;99.90
64561;DHT22;50960;46.838;16.838;2023-12-29T16:57:03;6.60;99.90
64561;DHT22;50960;46.838;16.838;2023-12-29T16:59:29;6.50;99.90
64561;DHT22;50960;46.838;16.838;2023-12-29T17:01:56;6.50;99.90
64561;DHT22;50960;46.838;16.838;2023-12-29T17:04:23;6.50;99.90
64561;DHT22;50960;46.838;16.838;2023-12-29T17:06:50;6.40;99.90
64561;DHT22;50960;46.838;16.838;2023-12-29T17:09:17;6.30;99.90
64561;DHT22;50960;46.838;16.838;2023-12-29T17:11:44;6.30;99.90
64561;DHT22;50960;46.838;16.838;2023-12-29T17:14:10;6.20;99.90
64561;DHT22;50960;46.838;16.838;2023-12-29T17:16:41;6.10;99.90
64561;DHT22;50960;46.838;16.838;2023-12-29T17:19:08;6.10;99.90
64561;DHT22;50960;46.838;16.838;2023-12-29T17:21:35;6.10;99.90
64561;DHT22;50960;46.838;16.838;2023-12-29T17:24:02;6.00;99.90
64561;DHT22;50960;46.838;16.838;2023-12-29T17:26:29;6.00;99.90
64561;DHT22;50960;46.838;16.838;2023-12-29T17:28:57;6.00;99.90
64561;DHT22;50960;46.838;16.838;2023-12-29T17:31:23;5.90;99.90
64561;DHT22;50960;46.838;16.838;2023-12-29T17:33:50;5.90;99.90
64561;DHT22;50960;46.838;16.838;2023-12-29T17:36:17;5.80;99.90
64561;DHT22;50960;46.838;16.838;2023-12-29T17:38:46;5.80;99.90
64561;DHT22;50960;46.838;16.838;2023-12-29T17:41:12;5.70;99.90
64561;DHT22;50960;46.838;16.838;2023-12-29T17:43:38;5.70;99.90
64561;DHT22;50960;46.838;16.838;2023-12-29T17:46:05;5.70;99.90
64561;DHT22;50960;46.838;16.838;2023-12-29T17:48:33;5.70;99.90
64561;DHT22;50960;46.838;16.838;2023-12-29T17:51:00;5.80;99.90
64561;DHT22;50960;46.838;16.838;2023-12-29T17:53:27;5.80;99.90
64561;DHT22;50960;46.838;16.838;2023-12-29T17:55:53;5.60;99.90
64561;DHT22;50960;46.838;16.838;2023-12-29T17:58:19;5.60;99.90
64561;DHT22;50960;46.838;16.838;2023-12-29T18:00:49;5.50;99.90
64561;DHT22;50960;46.838;16.838;2023-12-29T18:03:15;5.50;99.90
64561;DHT22;50960;46.838;16.838;2023-12-29T18:05:41;5.50;99.90
64561;DHT22;50960;46.838;16.838;2023-12-29T18:08:12;5.40;99.90
64561;DHT22;50960;46.838;16.838;2023-12-29T18:10:43;5.40;99.90
64561;DHT22;50960;46.838;16.838;2023-12-29T18:13:14;5.40;99.90
64561;DHT22;50960;46.838;16.838;2023-12-29T18:15:46;5.40;99.90
64561;DHT22;50960;46.838;16.838;2023-12-29T18:18:14;5.40;99.90
64561;DHT22;50960;46.838;16.838;2023-12-29T18:20:44;5.20;99.90
64561;DHT22;50960;46.838;16.838;2023-12-29T18:23:15;5.20;99.90
64561;DHT22;50960;46.838;16.838;2023-12-29T18:25:43;5.20;99.90
64561;DHT22;50960;46.838;16.838;2023-12-29T18:28:10;5.10;99.90
64561;DHT22;50960;46.838;16.838;2023-12-29T18:30:37;5.00;99.90
64561;DHT22;50960;46.838;16.838;2023-12-29T18:33:07;5.00;99.90
64561;DHT22;50960;46.838;16.838;2023-12-29T18:35:33;5.10;99.90
64561;DHT22;50960;46.838;16.838;2023-12-29T18:37:59;5.10;99.90
64561;DHT22;50960;46.838;16.838;2023-12-29T18:40:26;5.00;99.90
64561;DHT22;50960;46.838;16.838;2023-12-29T18:42:52;5.00;99.90
64561;DHT22;50960;46.838;16.838;2023-12-29T18:45:19;5.00;99.90
64561;DHT22;50960;46.838;16.838;2023-12-29T18:47:45;4.90;99.90
64561;DHT22;50960;46.838;16.838;2023-12-29T18:50:11;4.90;99.90
64561;DHT22;50960;46.838;16.838;2023-12-29T18:52:39;4.80;99.90
64561;DHT22;50960;46.838;16.838;2023-12-29T18:55:08;4.80;99.90
64561;DHT22;50960;46.838;16.838;2023-12-29T18:57:41;4.80;99.90
64561;DHT22;50960;46.838;16.838;2023-12-29T19:00:10;4.80;99.90
64561;DHT22;50960;46.838;16.838;2023-12-29T19:02:36;4.70;99.90
64561;DHT22;50960;46.838;16.838;2023-12-29T19:05:03;4.70;99.90
64561;DHT22;50960;46.838;16.838;2023-12-29T19:07:29;4.70;99.90
64561;DHT22;50960;46.838;16.838;2023-12-29T19:09:56;4.60;99.90
64561;DHT22;50960;46.838;16.838;2023-12-29T19:12:23;4.60;99.90
64561;DHT22;50960;46.838;16.838;2023-12-29T19:14:50;4.50;99.90
64561;DHT22;50960;46.838;16.838;2023-12-29T19:17:18;4.50;99.90
64561;DHT22;50960;46.838;16.838;2023-12-29T19:19:45;4.50;99.90
64561;DHT22;50960;46.838;16.838;2023-12-29T19:22:11;4.50;99.90
64561;DHT22;50960;46.838;16.838;2023-12-29T19:24:39;4.50;99.90
64561;DHT22;50960;46.838;16.838;2023-12-29T19:27:06;4.50;99.90
64561;DHT22;50960;46.838;16.838;2023-12-29T19:29:32;4.50;99.90
64561;DHT22;50960;46.838;16.838;2023-12-29T19:31:58;4.30;99.90
64561;DHT22;50960;46.838;16.838;2023-12-29T19:34:25;4.60;99.90
64561;DHT22;50960;46.838;16.838;2023-12-29T19:36:52;4.80;99.90
64561;DHT22;50960;46.838;16.838;2023-12-29T19:39:18;4.60;99.90
64561;DHT22;50960;46.838;16.838;2023-12-29T19:41:45;4.40;99.90
64561;DHT22;50960;46.838;16.838;2023-12-29T19:44:11;4.30;99.90
64561;DHT22;50960;46.838;16.838;2023-12-29T19:46:41;4.30;99.90
64561;DHT22;50960;46.838;16.838;2023-12-29T19:49:12;4.20;99.90
64561;DHT22;50960;46.838;16.838;2023-12-29T19:51:38;4.20;99.90
64561;DHT22;50960;46.838;16.838;2023-12-29T19:54:05;4.30;99.90
64561;DHT22;50960;46.838;16.838;2023-12-29T19:56:32;4.20;99.90
64561;DHT22;50960;46.838;16.838;2023-12-29T19:58:58;4.20;99.90
64561;DHT22;50960;46.838;16.838;2023-12-29T20:01:25;4.20;99.90
64561;DHT22;50960;46.838;16.838;2023-12-29T20:03:54;4.20;99.90
64561;DHT22;50960;46.838;16.838;2023-12-29T20:06:24;4.30;99.90
64561;DHT22;50960;46.838;16.838;2023-12-29T20:08:52;4.40;99.90
64561;DHT22;50960;46.838;16.838;2023-12-29T20:11:19;4.40;99.90
64561;DHT22;50960;46.838;16.838;2023-12-29T20:13:45;4.40;99.90
64561;DHT22;50960;46.838;16.838;2023-12-29T20:16:32;4.30;99.90
64561;DHT22;50960;46.838;16.838;2023-12-29T20:18:58;4.40;99.90
64561;DHT22;50960;46.838;16.838;2023-12-29T20:21:27;4.40;99.90
64561;DHT22;50960;46.838;16.838;2023-12-29T20:23:54;4.30;99.90
64561;DHT22;50960;46.838;16.838;2023-12-29T20:26:25;4.30;99.90
64561;DHT22;50960;46.838;16.838;2023-12-29T20:28:52;4.30;99.90
64561;DHT22;50960;46.838;16.838;2023-12-29T20:31:29;4.20;99.90
64561;DHT22;50960;46.838;16.838;2023-12-29T20:33:58;4.10;99.90
64561;DHT22;50960;46.838;16.838;2023-12-29T20:36:28;4.20;99.90
64561;DHT22;50960;46.838;16.838;2023-12-29T20:39:00;4.20;99.90
64561;DHT22;50960;46.838;16.838;2023-12-29T20:41:28;4.20;99.90
64561;DHT22;50960;46.838;16.838;2023-12-29T20:43:56;4.20;99.90
64561;DHT22;50960;46.838;16.838;2023-12-29T20:46:22;4.10;99.90
64561;DHT22;50960;46.838;16.838;2023-12-29T20:48:49;4.00;99.90
64561;DHT22;50960;46.838;16.838;2023-12-29T20:51:17;4.00;99.90
64561;DHT22;50960;46.838;16.838;2023-12-29T20:53:48;4.00;99.90
64561;DHT22;50960;46.838;16.838;2023-12-29T20:56:15;4.00;99.90
64561;DHT22;50960;46.838;16.838;2023-12-29T20:58:42;4.00;99.90
64561;DHT22;50960;46.838;16.838;2023-12-29T21:01:11;4.00;99.90